createdAt,value
2022-12-06T00:04:33.974Z,3.93
2022-12-06T00:09:34.682Z,3.88
2022-12-06T00:14:35.419Z,3.86
2022-12-06T00:19:36.172Z,3.86
2022-12-06T00:24:36.897Z,3.88
2022-12-06T00:29:37.608Z,3.88
2022-12-06T00:34:38.332Z,3.91
2022-12-06T00:39:39.073Z,3.90
2022-12-06T00:44:39.826Z,3.84
2022-12-06T00:49:40.545Z,3.76
2022-12-06T00:54:41.287Z,3.78
2022-12-06T00:59:42.045Z,3.76
2022-12-06T01:04:42.762Z,3.79
2022-12-06T01:09:43.497Z,3.73
2022-12-06T01:14:44.251Z,3.69
2022-12-06T01:19:44.979Z,3.69
2022-12-06T01:24:45.751Z,3.62
2022-12-06T01:29:46.502Z,3.61
2022-12-06T01:34:47.209Z,3.61
2022-12-06T01:39:47.938Z,3.60
2022-12-06T01:44:48.701Z,3.55
2022-12-06T01:49:49.431Z,3.54
2022-12-06T01:54:50.163Z,3.55
2022-12-06T01:59:50.890Z,3.57
2022-12-06T02:04:51.644Z,3.55
2022-12-06T02:09:52.334Z,3.50
2022-12-06T02:14:53.077Z,3.57
2022-12-06T02:19:53.841Z,3.54
2022-12-06T02:24:54.557Z,3.51
2022-12-06T02:29:55.298Z,3.50
2022-12-06T02:34:56.044Z,3.48
2022-12-06T02:39:56.903Z,3.47
2022-12-06T02:44:57.690Z,3.48
2022-12-06T02:49:58.832Z,3.43
2022-12-06T02:54:59.141Z,3.43
2022-12-06T03:00:00.160Z,3.35
2022-12-06T03:05:00.515Z,3.39
2022-12-06T03:10:01.480Z,3.39
2022-12-06T03:15:01.853Z,3.39
2022-12-06T03:20:02.850Z,3.35
2022-12-06T03:25:03.180Z,3.39
2022-12-06T03:30:03.920Z,3.35
2022-12-06T03:35:04.679Z,3.29
2022-12-06T03:40:05.428Z,3.26
2022-12-06T03:45:06.146Z,3.21
2022-12-06T03:50:06.899Z,3.18
2022-12-06T03:55:07.632Z,3.17
2022-12-06T04:00:08.336Z,3.21
2022-12-06T04:05:09.100Z,3.20
2022-12-06T04:10:09.807Z,3.18
2022-12-06T04:15:10.540Z,3.20
2022-12-06T04:20:11.294Z,3.21
2022-12-06T04:25:12.090Z,3.17
2022-12-06T04:30:12.828Z,3.15
2022-12-06T04:35:13.563Z,3.11
2022-12-06T04:40:14.301Z,3.13
2022-12-06T04:45:15.097Z,3.03
2022-12-06T04:50:22.868Z,3.02
2022-12-06T04:55:16.549Z,3.02
2022-12-06T05:00:17.363Z,3.02
2022-12-06T05:05:18.095Z,3.00
2022-12-06T05:10:19.103Z,3.05
2022-12-06T05:15:19.817Z,2.97
2022-12-06T05:20:20.554Z,2.96
2022-12-06T05:25:21.300Z,2.92
2022-12-06T05:30:22.073Z,2.93
2022-12-06T05:35:22.756Z,2.90
2022-12-06T05:40:23.493Z,2.93
2022-12-06T05:45:24.192Z,2.97
2022-12-06T05:50:24.910Z,3.06
2022-12-06T05:55:25.654Z,3.13
2022-12-06T06:00:26.358Z,3.03
2022-12-06T06:05:27.080Z,3.05
2022-12-06T06:10:27.772Z,3.00
2022-12-06T06:15:28.467Z,3.02
2022-12-06T06:20:29.194Z,2.99
2022-12-06T06:25:29.938Z,2.99
2022-12-06T06:30:30.639Z,3.02
2022-12-06T06:35:31.320Z,3.11
2022-12-06T06:40:32.042Z,3.06
2022-12-06T06:45:32.824Z,3.08
2022-12-06T06:50:33.427Z,3.06
2022-12-06T06:55:34.144Z,3.06
2022-12-06T07:00:34.813Z,3.10
2022-12-06T07:05:35.502Z,3.08
2022-12-06T07:10:36.133Z,3.05
2022-12-06T07:15:36.819Z,3.03
2022-12-06T07:20:37.536Z,2.97
2022-12-06T07:25:38.177Z,3.05
2022-12-06T07:30:38.939Z,3.00
2022-12-06T07:36:10.991Z,3.05
2022-12-06T07:41:03.392Z,3.10
2022-12-06T07:45:41.697Z,3.14
2022-12-06T07:50:41.336Z,3.20
2022-12-06T07:55:42.030Z,3.20
2022-12-06T08:00:42.721Z,3.21
2022-12-06T08:05:43.383Z,3.17
2022-12-06T08:10:44.132Z,3.15
2022-12-06T08:15:44.867Z,3.15
2022-12-06T08:20:45.555Z,3.18
2022-12-06T08:25:46.181Z,3.21
2022-12-06T08:30:46.945Z,3.23
2022-12-06T08:35:47.567Z,3.23
2022-12-06T08:40:48.223Z,3.28
2022-12-06T08:45:48.880Z,3.40
2022-12-06T08:50:49.570Z,3.42
2022-12-06T08:55:50.219Z,3.35
2022-12-06T09:00:50.875Z,3.36
2022-12-06T09:05:51.563Z,3.35
2022-12-06T09:10:52.215Z,3.40
2022-12-06T09:15:52.931Z,3.32
2022-12-06T09:20:53.561Z,3.32
2022-12-06T09:25:54.253Z,3.39
2022-12-06T09:30:54.955Z,3.50
2022-12-06T09:35:55.577Z,3.51
2022-12-06T09:40:56.246Z,3.50
2022-12-06T09:45:56.956Z,3.48
2022-12-06T09:50:57.616Z,3.42
2022-12-06T09:55:58.286Z,3.42
2022-12-06T10:00:58.971Z,3.40
2022-12-06T10:05:59.622Z,3.36
2022-12-06T10:11:06.889Z,3.35
2022-12-06T10:16:01.890Z,3.40
2022-12-06T10:21:01.499Z,3.45
2022-12-06T10:26:02.165Z,3.47
2022-12-06T10:31:02.887Z,3.40
2022-12-06T10:36:03.532Z,3.43
2022-12-06T10:41:04.169Z,3.50
2022-12-06T10:46:08.848Z,3.54
2022-12-06T10:51:12.559Z,3.51
2022-12-06T10:56:06.183Z,3.57
2022-12-06T11:01:06.832Z,3.57
2022-12-06T11:06:07.472Z,3.58
2022-12-06T11:11:08.231Z,3.60
2022-12-06T11:16:08.913Z,3.65
2022-12-06T11:21:09.559Z,3.68
2022-12-06T11:26:10.351Z,3.60
2022-12-06T11:31:11.033Z,3.60
2022-12-06T11:36:11.667Z,3.65
2022-12-06T11:41:12.341Z,3.68
2022-12-06T11:46:13.103Z,3.72
2022-12-06T11:51:13.717Z,3.61
2022-12-06T11:56:14.388Z,3.60
2022-12-06T12:01:15.136Z,3.62
2022-12-06T12:06:15.828Z,3.61
2022-12-06T12:11:16.472Z,3.58
2022-12-06T12:16:17.187Z,3.60
2022-12-06T12:21:17.842Z,3.61
2022-12-06T12:26:18.529Z,3.62
2022-12-06T12:31:19.226Z,3.62
2022-12-06T12:36:19.850Z,3.65
2022-12-06T12:41:20.534Z,3.62
2022-12-06T12:46:21.350Z,3.58
2022-12-06T12:51:21.981Z,3.55
2022-12-06T12:56:22.738Z,3.55
2022-12-06T13:01:23.453Z,3.54
2022-12-06T13:06:24.097Z,3.50
2022-12-06T13:11:24.792Z,3.51
2022-12-06T13:16:25.484Z,3.50
2022-12-06T13:21:26.180Z,3.45
2022-12-06T13:26:26.861Z,3.51
2022-12-06T13:31:27.511Z,3.52
2022-12-06T13:36:28.320Z,3.54
2022-12-06T13:41:29.082Z,3.58
2022-12-06T13:46:29.854Z,3.51
2022-12-06T13:51:30.545Z,3.48
2022-12-06T13:56:31.226Z,3.45
2022-12-06T14:01:36.831Z,3.47
2022-12-06T14:06:33.459Z,3.47
2022-12-06T14:11:39.555Z,3.48
2022-12-06T14:16:34.693Z,3.45
2022-12-06T14:21:34.318Z,3.42
2022-12-06T14:26:34.997Z,3.39
2022-12-06T14:31:35.788Z,3.40
2022-12-06T14:36:36.411Z,3.35
2022-12-06T14:41:37.170Z,3.40
2022-12-06T14:46:38.032Z,3.45
2022-12-06T14:51:38.844Z,3.47
2022-12-06T14:56:39.441Z,3.42
2022-12-06T15:01:40.119Z,3.35
2022-12-06T15:06:40.798Z,3.31
2022-12-06T15:11:41.450Z,3.35
2022-12-06T15:16:42.169Z,3.33
2022-12-06T15:21:42.852Z,3.40
2022-12-06T15:26:43.581Z,3.39
2022-12-06T15:31:44.329Z,3.42
2022-12-06T15:36:45.077Z,3.40
2022-12-06T15:41:45.818Z,3.40
2022-12-06T15:46:46.733Z,3.40
2022-12-06T15:51:47.456Z,3.43
2022-12-06T15:56:48.187Z,3.42
2022-12-06T16:01:48.962Z,3.42
2022-12-06T16:06:49.643Z,3.42
2022-12-06T16:11:50.363Z,3.50
2022-12-06T16:16:51.154Z,3.45
2022-12-06T16:21:51.845Z,3.45
2022-12-06T16:26:52.495Z,3.42
2022-12-06T16:31:53.425Z,3.45
2022-12-06T16:36:54.234Z,3.43
2022-12-06T16:41:55.009Z,3.43
2022-12-06T16:46:55.719Z,3.42
2022-12-06T16:52:03.433Z,3.42
2022-12-06T16:56:57.099Z,3.48
2022-12-06T17:01:57.759Z,3.50
2022-12-06T17:06:58.534Z,3.47
2022-12-06T17:11:59.337Z,3.51
2022-12-06T17:17:00.033Z,3.51
2022-12-06T17:22:00.799Z,3.47
2022-12-06T17:27:01.562Z,3.55
2022-12-06T17:32:02.302Z,3.58
2022-12-06T17:37:03.022Z,3.60
2022-12-06T17:42:03.717Z,3.65
2022-12-06T17:47:04.403Z,3.70
2022-12-06T17:52:05.216Z,3.69
2022-12-06T17:57:05.965Z,3.62
2022-12-06T18:02:15.149Z,3.69
2022-12-06T18:07:08.286Z,3.68
2022-12-06T18:12:07.970Z,3.72
2022-12-06T18:17:09.057Z,3.79
2022-12-06T18:22:09.582Z,3.80
2022-12-06T18:27:09.912Z,3.80
2022-12-06T18:32:10.820Z,3.78
2022-12-06T18:37:11.708Z,3.76
2022-12-06T18:42:12.607Z,3.80
2022-12-06T18:47:13.528Z,3.84
2022-12-06T18:52:14.028Z,3.88
2022-12-06T18:57:14.943Z,3.91
2022-12-06T19:02:15.845Z,4.00
2022-12-06T19:07:19.384Z,4.04
2022-12-06T19:12:18.259Z,3.94
2022-12-06T19:17:18.092Z,3.96
2022-12-06T19:22:19.040Z,3.98
2022-12-06T19:27:20.777Z,4.02
2022-12-06T19:32:20.203Z,4.04
2022-12-06T19:37:20.987Z,4.06
2022-12-06T19:42:21.723Z,4.05
2022-12-06T19:47:22.449Z,4.09
2022-12-06T19:52:26.575Z,4.14
2022-12-06T19:57:24.812Z,4.20
2022-12-06T20:02:24.771Z,4.20
2022-12-06T20:07:25.314Z,4.16
2022-12-06T20:12:25.613Z,4.16
2022-12-06T20:17:26.354Z,4.18
2022-12-06T20:22:27.115Z,4.18
2022-12-06T20:27:27.851Z,4.16
2022-12-06T20:32:28.645Z,4.18
2022-12-06T20:37:29.491Z,4.20
2022-12-06T20:42:30.404Z,4.22
2022-12-06T20:47:31.358Z,4.20
2022-12-06T20:52:32.246Z,4.34
2022-12-06T20:57:32.943Z,4.41
2022-12-06T21:02:33.913Z,4.67
2022-12-06T21:07:34.390Z,4.47
2022-12-06T21:12:35.119Z,4.34
2022-12-06T21:17:35.837Z,4.29
2022-12-06T21:22:36.666Z,4.24
2022-12-06T21:27:37.457Z,4.20
2022-12-06T21:32:38.274Z,4.23
2022-12-06T21:37:39.078Z,4.29
2022-12-06T21:42:39.892Z,4.27
2022-12-06T21:47:40.643Z,4.27
2022-12-06T21:52:41.371Z,4.26
2022-12-06T21:57:42.102Z,4.29
2022-12-06T22:02:42.934Z,4.26
2022-12-06T22:07:43.714Z,4.23
2022-12-06T22:12:44.397Z,4.24
2022-12-06T22:17:45.123Z,4.18
2022-12-06T22:22:45.861Z,4.15
2022-12-06T22:27:46.608Z,4.09
2022-12-06T22:32:47.306Z,4.08
2022-12-06T22:37:48.029Z,4.05
2022-12-06T22:42:48.797Z,4.05
2022-12-06T22:47:49.518Z,4.00
2022-12-06T22:52:50.239Z,3.91
2022-12-06T22:57:51.087Z,3.90
2022-12-06T23:02:51.815Z,3.88
2022-12-06T23:07:52.629Z,3.84
2022-12-06T23:12:53.311Z,3.83
2022-12-06T23:17:54.055Z,3.80
2022-12-06T23:23:01.782Z,3.79
2022-12-06T23:27:55.601Z,3.80
2022-12-06T23:32:56.333Z,3.78
2022-12-06T23:37:57.180Z,3.60
2022-12-06T23:42:57.906Z,3.55
2022-12-06T23:47:58.668Z,3.47
2022-12-06T23:52:59.434Z,3.47
2022-12-06T23:58:00.161Z,3.50
